createdAt,value
2023-04-19T00:02:11.316Z,98120.00
2023-04-19T00:04:39.797Z,98116.00
2023-04-19T00:07:08.536Z,98103.00
2023-04-19T00:09:36.704Z,98119.00
2023-04-19T00:12:05.156Z,98112.00
2023-04-19T00:14:33.436Z,98107.00
2023-04-19T00:17:01.713Z,98106.00
2023-04-19T00:19:31.251Z,98106.00
2023-04-19T00:21:59.439Z,98096.00
2023-04-19T00:24:27.692Z,98103.00
2023-04-19T00:26:55.947Z,98107.00
2023-04-19T00:29:24.163Z,98105.00
2023-04-19T00:31:52.995Z,98090.00
2023-04-19T00:34:21.245Z,98088.00
2023-04-19T00:36:50.772Z,98083.00
2023-04-19T00:39:18.961Z,98081.00
2023-04-19T00:41:47.111Z,98082.00
2023-04-19T00:44:15.681Z,98071.00
2023-04-19T00:46:45.226Z,98067.00
2023-04-19T00:49:13.685Z,98093.00
2023-04-19T00:51:42.226Z,98086.00
2023-04-19T00:54:16.643Z,98079.00
2023-04-19T00:56:46.691Z,98070.00
2023-04-19T00:59:17.090Z,98071.00
2023-04-19T01:01:45.361Z,98064.00
2023-04-19T01:04:14.397Z,98069.00
2023-04-19T01:06:43.489Z,98071.00
2023-04-19T01:09:13.924Z,98056.00
2023-04-19T01:11:43.616Z,98066.00
2023-04-19T01:14:12.023Z,98065.00
2023-04-19T01:16:41.458Z,98066.00
2023-04-19T01:19:09.658Z,98066.00
2023-04-19T01:21:40.041Z,98067.00
2023-04-19T01:24:09.872Z,98061.00
2023-04-19T01:26:38.097Z,98064.00
2023-04-19T01:29:06.282Z,98064.00
2023-04-19T01:31:34.466Z,98059.00
2023-04-19T01:34:02.651Z,98060.00
2023-04-19T01:36:32.162Z,98056.00
2023-04-19T01:39:00.344Z,98050.00
2023-04-19T01:41:30.245Z,98045.00
2023-04-19T01:43:58.409Z,98049.00
2023-04-19T01:46:26.558Z,98051.00
2023-04-19T01:48:54.811Z,98035.00
2023-04-19T01:51:22.988Z,98040.00
2023-04-19T01:53:53.635Z,98038.00
2023-04-19T01:56:22.573Z,98049.00
2023-04-19T01:58:52.163Z,98038.00
2023-04-19T02:01:20.861Z,98036.00
2023-04-19T02:03:49.365Z,98029.00
2023-04-19T02:06:17.733Z,98037.00
2023-04-19T02:08:45.971Z,98024.00
2023-04-19T02:11:15.610Z,98025.00
2023-04-19T02:13:44.281Z,98031.00
2023-04-19T02:16:13.896Z,98014.00
2023-04-19T02:18:42.136Z,98007.00
2023-04-19T02:21:12.029Z,98012.00
2023-04-19T02:23:40.358Z,98007.00
2023-04-19T02:26:08.678Z,98008.00
2023-04-19T02:28:37.939Z,98015.00
2023-04-19T02:31:08.328Z,98023.00
2023-04-19T02:33:37.825Z,97997.00
2023-04-19T02:36:06.612Z,98007.00
2023-04-19T02:38:35.288Z,97999.00
2023-04-19T02:41:04.405Z,97990.00
2023-04-19T02:43:32.721Z,98002.00
2023-04-19T02:46:01.166Z,98000.00
2023-04-19T02:48:29.438Z,98004.00
2023-04-19T02:50:59.247Z,97995.00
2023-04-19T02:53:27.689Z,97986.00
2023-04-19T02:55:56.153Z,97994.00
2023-04-19T02:58:24.344Z,97995.00
2023-04-19T03:01:01.271Z,97990.00
2023-04-19T03:03:29.507Z,97987.00
2023-04-19T03:05:59.276Z,97995.00
2023-04-19T03:08:28.453Z,97993.00
2023-04-19T03:10:56.652Z,97994.00
2023-04-19T03:13:24.942Z,97982.00
2023-04-19T03:15:53.482Z,97976.00
2023-04-19T03:18:24.091Z,97983.00
2023-04-19T03:20:54.282Z,97974.00
2023-04-19T03:23:24.016Z,97978.00
2023-04-19T03:25:52.441Z,97972.00
2023-04-19T03:28:38.398Z,97975.00
2023-04-19T03:31:12.508Z,97957.00
2023-04-19T03:33:41.652Z,97964.00
2023-04-19T03:36:11.285Z,97948.00
2023-04-19T03:38:43.593Z,97950.00
2023-04-19T03:41:21.271Z,97951.00
2023-04-19T03:43:53.043Z,97946.00
2023-04-19T03:46:21.434Z,97957.00
2023-04-19T03:48:51.488Z,97944.00
2023-04-19T03:51:20.981Z,97943.00
2023-04-19T03:53:50.518Z,97947.00
2023-04-19T03:56:20.533Z,97939.00
2023-04-19T03:58:51.849Z,97942.00
2023-04-19T04:01:21.206Z,97936.00
2023-04-19T04:03:50.569Z,97937.00
2023-04-19T04:06:20.149Z,97942.00
2023-04-19T04:08:50.204Z,97930.00
2023-04-19T04:11:18.406Z,97943.00
2023-04-19T04:13:50.347Z,97928.00
2023-04-19T04:16:22.443Z,97938.00
2023-04-19T04:18:52.530Z,97942.00
2023-04-19T04:21:22.365Z,97946.00
2023-04-19T04:23:53.174Z,97953.00
2023-04-19T04:26:33.961Z,97950.00
2023-04-19T04:29:19.043Z,97948.00
2023-04-19T04:31:47.720Z,97947.00
2023-04-19T04:34:20.432Z,97942.00
2023-04-19T04:36:54.370Z,97944.00
2023-04-19T04:39:25.599Z,97935.00
2023-04-19T04:41:53.774Z,97951.00
2023-04-19T04:44:22.442Z,97955.00
2023-04-19T04:46:50.764Z,97952.00
2023-04-19T04:49:25.179Z,97942.00
2023-04-19T04:51:53.413Z,97946.00
2023-04-19T04:54:22.872Z,97943.00
2023-04-19T04:56:52.815Z,97940.00
2023-04-19T04:59:21.004Z,97941.00
2023-04-19T05:01:51.043Z,97932.00
2023-04-19T05:04:20.315Z,97932.00
2023-04-19T05:06:49.265Z,97951.00
2023-04-19T05:09:23.146Z,97950.00
2023-04-19T05:11:53.385Z,97938.00
2023-04-19T05:14:21.875Z,97930.00
2023-04-19T05:16:50.333Z,97940.00
2023-04-19T05:19:19.036Z,97931.00
2023-04-19T05:21:52.686Z,97931.00
2023-04-19T05:24:20.881Z,97922.00
2023-04-19T05:26:49.222Z,97930.00
2023-04-19T05:29:18.924Z,97922.00
2023-04-19T05:31:53.397Z,97931.00
2023-04-19T05:34:28.854Z,97930.00
2023-04-19T05:36:58.823Z,97922.00
2023-04-19T05:39:27.746Z,97919.00
2023-04-19T05:41:55.999Z,97917.00
2023-04-19T05:44:25.857Z,97920.00
2023-04-19T05:46:54.143Z,97909.00
2023-04-19T05:49:43.404Z,97907.00
2023-04-19T05:52:33.763Z,97919.00
2023-04-19T05:55:03.029Z,97926.00
2023-04-19T05:57:31.727Z,97922.00
2023-04-19T06:00:02.451Z,97924.00
2023-04-19T06:02:41.875Z,97911.00
2023-04-19T06:05:13.683Z,97906.00
2023-04-19T06:07:47.334Z,97931.00
2023-04-19T06:10:23.475Z,97914.00
2023-04-19T06:12:51.805Z,97925.00
2023-04-19T06:15:21.488Z,97907.00
2023-04-19T06:17:49.805Z,97908.00
2023-04-19T06:20:18.290Z,97920.00
2023-04-19T06:22:47.059Z,97910.00
2023-04-19T06:25:15.457Z,97912.00
2023-04-19T06:27:43.663Z,97918.00
2023-04-19T06:30:12.730Z,97911.00
2023-04-19T06:32:42.293Z,97908.00
2023-04-19T06:35:10.791Z,97908.00
2023-04-19T06:37:39.162Z,97906.00
2023-04-19T06:40:09.377Z,97902.00
2023-04-19T06:42:37.530Z,97907.00
2023-04-19T06:45:09.540Z,97897.00
2023-04-19T06:47:37.916Z,97893.00
2023-04-19T06:50:09.471Z,97909.00
2023-04-19T06:52:37.862Z,97901.00
2023-04-19T06:55:07.397Z,97896.00
2023-04-19T06:57:35.655Z,97886.00
2023-04-19T07:00:07.875Z,97878.00
2023-04-19T07:02:36.264Z,97889.00
2023-04-19T07:05:05.041Z,97892.00
2023-04-19T07:07:34.538Z,97882.00
2023-04-19T07:10:02.876Z,97875.00
2023-04-19T07:12:31.106Z,97876.00
2023-04-19T07:14:59.259Z,97885.00
2023-04-19T07:17:27.534Z,97885.00
2023-04-19T07:19:56.225Z,97879.00
2023-04-19T07:22:24.437Z,97878.00
2023-04-19T07:24:55.227Z,97865.00
2023-04-19T07:27:23.429Z,97865.00
2023-04-19T07:29:51.756Z,97862.00
2023-04-19T07:32:20.887Z,97864.00
2023-04-19T07:34:49.276Z,97872.00
2023-04-19T07:37:17.489Z,97853.00
2023-04-19T07:39:45.709Z,97854.00
2023-04-19T07:42:15.163Z,97851.00
2023-04-19T07:44:43.409Z,97853.00
2023-04-19T07:47:11.597Z,97848.00
2023-04-19T07:49:39.764Z,97842.00
2023-04-19T07:52:09.119Z,97842.00
2023-04-19T07:54:39.173Z,97852.00
2023-04-19T07:57:07.287Z,97866.00
2023-04-19T07:59:36.809Z,97852.00
2023-04-19T08:02:05.160Z,97860.00
2023-04-19T08:04:33.668Z,97845.00
2023-04-19T08:07:03.813Z,97843.00
2023-04-19T08:09:32.157Z,97847.00
2023-04-19T08:12:01.212Z,97837.00
2023-04-19T08:14:40.555Z,97848.00
2023-04-19T08:17:24.631Z,97842.00
2023-04-19T08:19:55.234Z,97844.00
2023-04-19T08:22:23.447Z,97835.00
2023-04-19T08:24:52.759Z,97846.00
2023-04-19T08:27:21.457Z,97848.00
2023-04-19T08:29:49.811Z,97840.00
2023-04-19T08:32:19.495Z,97838.00
2023-04-19T08:34:47.797Z,97844.00
2023-04-19T08:37:15.959Z,97840.00
2023-04-19T08:39:44.121Z,97840.00
2023-04-19T08:42:24.634Z,97849.00
2023-04-19T08:47:48.227Z,97850.00
2023-04-19T08:50:33.493Z,97836.00
2023-04-19T08:53:20.998Z,97842.00
2023-04-19T08:56:10.850Z,97847.00
2023-04-19T09:01:30.482Z,97837.00
2023-04-19T09:04:21.657Z,97842.00
2023-04-19T09:06:54.117Z,97837.00
2023-04-19T09:09:36.501Z,97830.00
2023-04-19T09:12:18.675Z,97850.00
2023-04-19T09:17:19.409Z,97833.00
2023-04-19T09:19:50.715Z,97834.00
2023-04-19T09:22:19.605Z,97832.00
2023-04-19T09:27:28.597Z,97832.00
2023-04-19T09:29:57.928Z,97823.00
2023-04-19T09:32:27.278Z,97826.00
2023-04-19T09:34:59.526Z,97842.00
2023-04-19T09:39:59.919Z,97844.00
2023-04-19T09:48:03.819Z,97824.00
2023-04-19T09:50:35.984Z,97829.00
2023-04-19T09:53:15.498Z,97821.00
2023-04-19T09:55:57.755Z,97838.00
2023-04-19T09:58:41.618Z,97820.00
2023-04-19T10:01:20.175Z,97817.00
2023-04-19T10:03:52.771Z,97812.00
2023-04-19T10:06:40.462Z,97815.00
2023-04-19T10:09:15.779Z,97811.00
2023-04-19T10:14:24.462Z,97802.00
2023-04-19T10:16:53.059Z,97806.00
2023-04-19T10:19:23.956Z,97815.00
2023-04-19T10:21:54.192Z,97802.00
2023-04-19T10:24:23.811Z,97794.00
2023-04-19T10:27:11.964Z,97810.00
2023-04-19T10:30:05.076Z,97812.00
2023-04-19T10:32:40.743Z,97796.00
2023-04-19T10:35:12.311Z,97788.00
2023-04-19T10:38:04.448Z,97795.00
2023-04-19T10:41:05.467Z,97785.00
2023-04-19T10:43:35.288Z,97782.00
2023-04-19T10:46:09.406Z,97789.00
2023-04-19T10:48:53.521Z,97788.00
2023-04-19T10:51:25.050Z,97793.00
2023-04-19T10:53:59.692Z,97761.00
2023-04-19T10:57:02.002Z,97770.00
2023-04-19T10:59:34.459Z,97750.00
2023-04-19T11:02:04.991Z,97761.00
2023-04-19T11:05:02.430Z,97750.00
2023-04-19T11:07:39.779Z,97730.00
2023-04-19T11:10:11.410Z,97743.00
2023-04-19T11:12:44.834Z,97737.00
2023-04-19T11:15:13.159Z,97748.00
2023-04-19T11:17:42.470Z,97727.00
2023-04-19T11:20:13.453Z,97735.00
2023-04-19T11:22:43.895Z,97728.00
2023-04-19T11:25:16.625Z,97735.00
2023-04-19T11:27:46.526Z,97723.00
2023-04-19T11:30:19.450Z,97724.00
2023-04-19T11:32:49.409Z,97718.00
2023-04-19T11:35:21.789Z,97715.00
2023-04-19T11:37:50.383Z,97711.00
2023-04-19T11:40:22.348Z,97699.00
2023-04-19T11:42:56.605Z,97699.00
2023-04-19T11:45:32.997Z,97689.00
2023-04-19T11:48:05.932Z,97692.00
2023-04-19T11:50:37.779Z,97696.00
2023-04-19T11:53:17.546Z,97686.00
2023-04-19T11:55:51.437Z,97689.00
2023-04-19T11:58:29.869Z,97690.00
2023-04-19T12:01:04.029Z,97682.00
2023-04-19T12:03:32.520Z,97682.00
2023-04-19T12:06:04.614Z,97670.00
2023-04-19T12:08:35.099Z,97684.00
2023-04-19T12:11:06.981Z,97671.00
2023-04-19T12:13:37.411Z,97671.00
2023-04-19T12:16:06.709Z,97668.00
2023-04-19T12:18:48.342Z,97671.00
2023-04-19T12:21:27.478Z,97670.00
2023-04-19T12:23:57.943Z,97651.00
2023-04-19T12:26:29.244Z,97652.00
2023-04-19T12:28:58.677Z,97663.00
2023-04-19T12:31:27.037Z,97649.00
2023-04-19T12:33:55.727Z,97658.00
2023-04-19T12:36:24.011Z,97652.00
2023-04-19T12:38:52.341Z,97644.00
2023-04-19T12:41:21.106Z,97644.00
2023-04-19T12:43:50.664Z,97637.00
2023-04-19T12:46:18.904Z,97640.00
2023-04-19T12:48:47.103Z,97644.00
2023-04-19T12:51:15.375Z,97654.00
2023-04-19T12:53:48.920Z,97647.00
2023-04-19T12:56:17.264Z,97639.00
2023-04-19T12:58:45.543Z,97647.00
2023-04-19T13:01:15.353Z,97648.00
2023-04-19T13:03:43.823Z,97645.00
2023-04-19T13:06:13.519Z,97649.00
2023-04-19T13:08:46.648Z,97640.00
2023-04-19T13:11:17.776Z,97635.00
2023-04-19T13:13:46.119Z,97639.00
2023-04-19T13:16:15.872Z,97630.00
2023-04-19T13:18:44.106Z,97622.00
2023-04-19T13:21:12.280Z,97633.00
2023-04-19T13:23:40.554Z,97631.00
2023-04-19T13:26:08.832Z,97625.00
2023-04-19T13:28:37.162Z,97624.00
2023-04-19T13:31:06.450Z,97621.00
2023-04-19T13:33:36.051Z,97631.00
2023-04-19T13:36:05.021Z,97628.00
2023-04-19T13:38:33.284Z,97610.00
2023-04-19T13:41:03.549Z,97615.00
2023-04-19T13:43:31.785Z,97625.00
2023-04-19T13:45:59.978Z,97630.00
2023-04-19T13:48:29.008Z,97633.00
2023-04-19T13:50:59.436Z,97627.00
2023-04-19T13:53:29.041Z,97618.00
2023-04-19T13:55:57.905Z,97617.00
2023-04-19T13:58:26.090Z,97614.00
2023-04-19T14:00:54.639Z,97616.00
2023-04-19T14:03:23.798Z,97614.00
2023-04-19T14:05:52.214Z,97629.00
2023-04-19T14:08:21.984Z,97618.00
2023-04-19T14:10:51.212Z,97616.00
2023-04-19T14:13:19.517Z,97620.00
2023-04-19T14:15:47.671Z,97614.00
2023-04-19T14:18:15.991Z,97605.00
2023-04-19T14:20:44.223Z,97604.00
2023-04-19T14:23:12.516Z,97600.00
2023-04-19T14:25:42.171Z,97600.00
2023-04-19T14:28:12.585Z,97604.00
2023-04-19T14:30:41.369Z,97601.00
2023-04-19T14:33:10.124Z,97600.00
2023-04-19T14:35:38.335Z,97598.00
2023-04-19T14:38:06.642Z,97600.00
2023-04-19T14:40:35.122Z,97595.00
2023-04-19T14:43:04.660Z,97600.00
2023-04-19T14:45:32.890Z,97603.00
2023-04-19T14:48:01.356Z,97603.00
2023-04-19T14:50:29.645Z,97600.00
2023-04-19T14:52:57.848Z,97601.00
2023-04-19T14:55:27.469Z,97599.00
2023-04-19T14:57:55.728Z,97589.00
2023-04-19T15:00:25.548Z,97597.00
2023-04-19T15:02:54.265Z,97593.00
2023-04-19T15:05:24.642Z,97601.00
2023-04-19T15:07:53.121Z,97588.00
2023-04-19T15:10:21.520Z,97603.00
2023-04-19T15:12:49.734Z,97604.00
2023-04-19T15:15:18.170Z,97598.00
2023-04-19T15:17:47.821Z,97611.00
2023-04-19T15:20:16.609Z,97614.00
2023-04-19T15:22:44.985Z,97616.00
2023-04-19T15:25:13.305Z,97613.00
2023-04-19T15:27:42.268Z,97610.00
2023-04-19T15:30:12.273Z,97614.00
2023-04-19T15:32:43.097Z,97615.00
2023-04-19T15:35:14.010Z,97621.00
2023-04-19T15:37:43.706Z,97618.00
2023-04-19T15:40:14.354Z,97609.00
2023-04-19T15:42:42.764Z,97606.00
2023-04-19T15:45:12.052Z,97614.00
2023-04-19T15:47:40.558Z,97608.00
2023-04-19T15:50:10.297Z,97617.00
2023-04-19T15:52:39.842Z,97612.00
2023-04-19T15:55:09.308Z,97613.00
2023-04-19T15:57:37.449Z,97626.00
2023-04-19T16:00:09.359Z,97615.00
2023-04-19T16:02:40.773Z,97611.00
2023-04-19T16:05:10.166Z,97616.00
2023-04-19T16:07:39.728Z,97619.00
2023-04-19T16:10:09.031Z,97620.00
2023-04-19T16:12:37.309Z,97628.00
2023-04-19T16:15:07.185Z,97619.00
2023-04-19T16:17:35.424Z,97628.00
2023-04-19T16:20:04.600Z,97626.00
2023-04-19T16:22:32.994Z,97632.00
2023-04-19T16:25:02.623Z,97626.00
2023-04-19T16:27:33.539Z,97615.00
2023-04-19T16:30:01.758Z,97625.00
2023-04-19T16:32:30.100Z,97624.00
2023-04-19T16:34:58.373Z,97625.00
2023-04-19T16:37:26.641Z,97637.00
2023-04-19T16:39:54.814Z,97628.00
2023-04-19T16:42:24.461Z,97624.00
2023-04-19T16:44:52.718Z,97628.00
2023-04-19T16:47:21.863Z,97620.00
2023-04-19T16:49:50.576Z,97618.00
2023-04-19T16:52:18.860Z,97627.00
2023-04-19T16:54:46.982Z,97614.00
2023-04-19T16:57:15.403Z,97622.00
2023-04-19T16:59:45.901Z,97626.00
2023-04-19T17:02:14.327Z,97620.00
2023-04-19T17:04:42.935Z,97613.00
2023-04-19T17:07:11.618Z,97614.00
2023-04-19T17:09:40.182Z,97621.00
2023-04-19T17:12:08.990Z,97622.00
2023-04-19T17:14:37.427Z,97626.00
2023-04-19T17:17:07.172Z,97615.00
2023-04-19T17:19:35.369Z,97626.00
2023-04-19T17:22:05.434Z,97614.00
2023-04-19T17:24:34.546Z,97613.00
2023-04-19T17:27:03.295Z,97601.00
2023-04-19T17:29:31.466Z,97619.00
2023-04-19T17:32:00.431Z,97614.00
2023-04-19T17:34:30.130Z,97619.00
2023-04-19T17:36:59.427Z,97617.00
2023-04-19T17:39:27.858Z,97634.00
2023-04-19T17:41:56.953Z,97625.00
2023-04-19T17:44:25.374Z,97638.00
2023-04-19T17:46:53.706Z,97634.00
2023-04-19T17:49:22.043Z,97627.00
2023-04-19T17:51:53.098Z,97628.00
2023-04-19T17:54:21.352Z,97651.00
2023-04-19T17:56:49.871Z,97652.00
2023-04-19T17:59:18.164Z,97635.00
2023-04-19T18:01:46.662Z,97646.00
2023-04-19T18:04:17.841Z,97654.00
2023-04-19T18:06:46.514Z,97644.00
2023-04-19T18:09:16.538Z,97653.00
2023-04-19T18:11:45.044Z,97655.00
2023-04-19T18:14:13.218Z,97651.00
2023-04-19T18:16:41.476Z,97648.00
2023-04-19T18:19:09.925Z,97659.00
2023-04-19T18:21:38.500Z,97661.00
2023-04-19T18:24:07.714Z,97657.00
2023-04-19T18:26:43.098Z,97653.00
2023-04-19T18:29:12.275Z,97658.00
2023-04-19T18:31:40.561Z,97645.00
2023-04-19T18:34:11.918Z,97653.00
2023-04-19T18:36:40.729Z,97664.00
2023-04-19T18:39:09.100Z,97665.00
2023-04-19T18:41:37.395Z,97670.00
2023-04-19T18:44:34.922Z,97662.00
2023-04-19T18:46:55.669Z,97666.00
2023-04-19T18:49:23.885Z,97669.00
2023-04-19T18:51:52.175Z,97678.00
2023-04-19T18:54:20.559Z,97670.00
2023-04-19T18:57:20.992Z,97674.00
2023-04-19T18:59:40.151Z,97681.00
2023-04-19T19:02:08.901Z,97674.00
2023-04-19T19:04:51.899Z,97678.00
2023-04-19T19:07:34.791Z,97667.00
2023-04-19T19:10:17.121Z,97680.00
2023-04-19T19:12:47.756Z,97668.00
2023-04-19T19:15:17.767Z,97677.00
2023-04-19T19:17:49.915Z,97678.00
2023-04-19T19:20:19.949Z,97683.00
2023-04-19T19:22:48.493Z,97680.00
2023-04-19T19:25:17.007Z,97677.00
2023-04-19T19:28:04.980Z,97675.00
2023-04-19T19:30:35.735Z,97677.00
2023-04-19T19:33:04.922Z,97685.00
2023-04-19T19:35:33.697Z,97685.00
2023-04-19T19:38:03.283Z,97677.00
2023-04-19T19:40:32.865Z,97684.00
2023-04-19T19:43:01.777Z,97672.00
2023-04-19T19:45:30.886Z,97669.00
2023-04-19T19:48:01.053Z,97665.00
2023-04-19T19:53:01.855Z,97680.00
2023-04-19T19:55:30.672Z,97676.00
2023-04-19T20:03:04.120Z,97674.00
2023-04-19T20:05:33.768Z,97660.00
2023-04-19T20:08:11.580Z,97675.00
2023-04-19T20:10:43.044Z,97668.00
2023-04-19T20:13:12.903Z,97678.00
2023-04-19T20:15:42.043Z,97668.00
2023-04-19T20:18:11.813Z,97668.00
2023-04-19T20:20:40.525Z,97662.00
2023-04-19T20:23:08.801Z,97669.00
2023-04-19T20:25:38.646Z,97665.00
2023-04-19T20:28:07.073Z,97657.00
2023-04-19T20:30:35.471Z,97667.00
2023-04-19T20:33:03.807Z,97665.00
2023-04-19T20:35:36.468Z,97677.00
2023-04-19T20:38:07.527Z,97673.00
2023-04-19T20:40:35.742Z,97663.00
2023-04-19T20:43:04.334Z,97665.00
2023-04-19T20:45:33.026Z,97673.00
2023-04-19T20:48:01.433Z,97669.00
2023-04-19T20:50:29.578Z,97668.00
2023-04-19T20:52:59.400Z,97665.00
2023-04-19T20:55:28.309Z,97664.00
2023-04-19T20:57:56.514Z,97659.00
2023-04-19T21:00:24.973Z,97676.00
2023-04-19T21:02:53.680Z,97669.00
2023-04-19T21:05:22.221Z,97671.00
2023-04-19T21:07:50.505Z,97662.00
2023-04-19T21:10:21.926Z,97663.00
2023-04-19T21:12:50.640Z,97665.00
2023-04-19T21:15:19.163Z,97654.00
2023-04-19T21:17:47.395Z,97649.00
2023-04-19T21:20:18.139Z,97648.00
2023-04-19T21:22:47.440Z,97649.00
2023-04-19T21:25:15.872Z,97658.00
2023-04-19T21:27:45.583Z,97640.00
2023-04-19T21:30:14.667Z,97652.00
2023-04-19T21:32:42.893Z,97641.00
2023-04-19T21:35:11.490Z,97643.00
2023-04-19T21:37:39.753Z,97644.00
2023-04-19T21:40:09.458Z,97638.00
2023-04-19T21:42:37.837Z,97643.00
2023-04-19T21:45:09.184Z,97634.00
2023-04-19T21:47:37.464Z,97627.00
2023-04-19T21:50:06.778Z,97625.00
2023-04-19T21:52:34.989Z,97612.00
2023-04-19T21:55:03.307Z,97621.00
2023-04-19T21:57:31.585Z,97627.00
2023-04-19T22:00:00.709Z,97610.00
2023-04-19T22:02:30.433Z,97598.00
2023-04-19T22:05:00.253Z,97609.00
2023-04-19T22:07:30.588Z,97597.00
2023-04-19T22:09:58.811Z,97592.00
2023-04-19T22:12:27.219Z,97603.00
2023-04-19T22:14:56.017Z,97609.00
2023-04-19T22:17:24.309Z,97600.00
2023-04-19T22:19:54.144Z,97593.00
2023-04-19T22:22:22.452Z,97595.00
2023-04-19T22:24:57.516Z,97599.00
2023-04-19T22:27:26.590Z,97583.00
2023-04-19T22:29:54.927Z,97597.00
2023-04-19T22:32:23.182Z,97603.00
2023-04-19T22:34:52.905Z,97591.00
2023-04-19T22:37:21.047Z,97586.00
2023-04-19T22:39:49.276Z,97594.00
2023-04-19T22:42:17.483Z,97591.00
2023-04-19T22:44:45.725Z,97576.00
2023-04-19T22:47:14.437Z,97589.00
2023-04-19T22:49:43.464Z,97582.00
2023-04-19T22:52:14.470Z,97585.00
2023-04-19T22:54:42.896Z,97581.00
2023-04-19T22:57:11.850Z,97568.00
2023-04-19T22:59:40.280Z,97575.00
2023-04-19T23:02:08.607Z,97570.00
2023-04-19T23:04:37.911Z,97566.00
2023-04-19T23:07:06.963Z,97554.00
2023-04-19T23:09:38.974Z,97547.00
2023-04-19T23:12:08.254Z,97553.00
2023-04-19T23:14:38.410Z,97559.00
2023-04-19T23:17:06.649Z,97555.00
2023-04-19T23:19:36.529Z,97544.00
2023-04-19T23:22:04.755Z,97546.00
2023-04-19T23:24:33.039Z,97537.00
2023-04-19T23:27:03.266Z,97539.00
2023-04-19T23:29:31.821Z,97543.00
2023-04-19T23:32:01.955Z,97543.00
2023-04-19T23:34:30.237Z,97531.00
2023-04-19T23:36:58.481Z,97538.00
2023-04-19T23:39:26.779Z,97536.00
2023-04-19T23:41:55.019Z,97529.00
2023-04-19T23:44:24.641Z,97521.00
2023-04-19T23:46:52.957Z,97519.00
2023-04-19T23:49:21.178Z,97526.00
2023-04-19T23:51:50.404Z,97519.00
2023-04-19T23:54:21.218Z,97521.00
2023-04-19T23:56:49.575Z,97510.00
2023-04-19T23:59:19.053Z,97509.00
